Time;durP1;ratioP1;P1;durP2;ratioP2;P2;SDS_P1;SDS_P2;PMS_P1;PMS_P2;Temp;Humidity;BMP_temperature;BMP_pressure;BME280_temperature;BME280_humidity;BME280_pressure;Samples;Min_cycle;Max_cycle;Signal;HPM_P1;HPM_P2
2022/06/26 00:01:17;;;;;;;11.57;5.40;;;19.30;99.90;;;;;;5033376;28;20485;-77
2022/06/26 00:03:44;;;;;;;5.90;5.37;;;19.20;99.90;;;;;;5029834;28;20513;-76
2022/06/26 00:06:11;;;;;;;5.20;4.73;;;19.10;99.90;;;;;;5033216;28;20461;-77
2022/06/26 00:08:38;;;;;;;5.30;4.40;;;19.10;99.90;;;;;;5033354;28;20495;-77
2022/06/26 00:11:05;;;;;;;8.33;4.77;;;19.10;99.90;;;;;;5033013;28;20531;-77
2022/06/26 00:13:33;;;;;;;5.17;4.77;;;19.10;99.90;;;;;;5033072;28;20450;-77
2022/06/26 00:16:00;;;;;;;5.47;5.07;;;19.10;99.90;;;;;;5033115;28;20454;-77
2022/06/26 00:18:27;;;;;;;5.70;5.20;;;19.00;99.90;;;;;;5033224;28;20872;-76
2022/06/26 00:20:53;;;;;;;6.07;4.77;;;19.00;99.90;;;;;;5032907;28;20489;-77
2022/06/26 00:23:20;;;;;;;5.50;5.00;;;19.00;99.90;;;;;;5033236;28;20800;-77
2022/06/26 00:25:47;;;;;;;8.93;4.57;;;19.00;99.90;;;;;;5033389;28;20502;-77
2022/06/26 00:28:13;;;;;;;6.23;5.00;;;18.90;99.90;;;;;;5033677;28;20496;-77
2022/06/26 00:30:41;;;;;;;8.43;5.00;;;18.90;99.90;;;;;;5033635;28;20461;-77
2022/06/26 00:33:08;;;;;;;5.37;4.97;;;18.90;99.90;;;;;;5033182;28;20818;-77
2022/06/26 00:35:34;;;;;;;6.33;4.77;;;18.90;99.90;;;;;;5033044;28;20457;-77
2022/06/26 00:38:01;;;;;;;6.03;5.30;;;18.90;99.90;;;;;;5033212;28;20461;-77
2022/06/26 00:40:28;;;;;;;7.53;5.10;;;18.80;99.90;;;;;;5032036;28;20478;-76
2022/06/26 00:42:54;;;;;;;9.60;5.80;;;18.80;99.90;;;;;;5033474;28;20424;-77
2022/06/26 00:45:21;;;;;;;5.60;4.97;;;18.90;99.90;;;;;;5032880;28;20453;-77
2022/06/26 00:47:49;;;;;;;8.53;5.60;;;18.80;99.90;;;;;;5033168;28;20461;-77
2022/06/26 00:50:16;;;;;;;6.10;5.30;;;18.90;99.90;;;;;;5032790;28;20973;-77
2022/06/26 00:52:42;;;;;;;6.53;3.73;;;18.90;99.90;;;;;;5031461;28;20453;-77
2022/06/26 00:55:10;;;;;;;3.53;2.50;;;19.00;99.90;;;;;;5032356;28;20428;-77
2022/06/26 00:57:38;;;;;;;2.27;2.10;;;19.30;99.90;;;;;;5033232;28;20546;-77
2022/06/26 01:00:05;;;;;;;2.40;2.30;;;19.60;99.90;;;;;;5032809;28;20477;-77
2022/06/26 01:02:32;;;;;;;2.77;2.57;;;19.80;99.90;;;;;;5032707;28;20452;-77
2022/06/26 01:05:00;;;;;;;2.30;2.20;;;19.90;99.90;;;;;;5033077;28;20957;-77
2022/06/26 01:07:27;;;;;;;6.23;2.33;;;20.00;99.90;;;;;;5032761;28;20454;-78
2022/06/26 01:09:54;;;;;;;2.60;2.30;;;20.10;99.90;;;;;;5033734;28;20507;-76
2022/06/26 01:12:20;;;;;;;2.10;2.00;;;20.20;99.90;;;;;;5032548;28;20466;-77
2022/06/26 01:14:48;;;;;;;3.57;2.33;;;20.20;99.90;;;;;;5032451;28;20452;-76
2022/06/26 01:17:14;;;;;;;12.93;3.53;;;20.30;99.90;;;;;;5032845;28;20488;-77
2022/06/26 01:19:41;;;;;;;8.83;3.57;;;20.20;99.90;;;;;;5033133;28;20450;-77
2022/06/26 01:22:09;;;;;;;4.33;3.10;;;20.10;99.90;;;;;;5032505;28;20474;-77
2022/06/26 01:24:37;;;;;;;4.47;3.40;;;19.80;99.90;;;;;;5032208;28;20516;-77
2022/06/26 01:27:05;;;;;;;10.10;3.20;;;19.80;99.90;;;;;;5032465;28;20884;-77
2022/06/26 01:29:32;;;;;;;3.47;3.13;;;19.70;99.90;;;;;;5032105;28;20450;-77
2022/06/26 01:31:59;;;;;;;4.07;3.33;;;19.60;99.90;;;;;;5032438;28;20469;-77
2022/06/26 01:34:26;;;;;;;4.83;4.00;;;19.60;99.90;;;;;;5033814;28;20511;-77
2022/06/26 01:36:52;;;;;;;9.73;4.83;;;19.60;99.90;;;;;;5033057;28;20458;-77
2022/06/26 01:39:19;;;;;;;8.10;4.63;;;19.50;99.90;;;;;;5033798;28;20449;-77
2022/06/26 01:41:49;;;;;;;10.63;5.30;;;19.30;99.90;;;;;;5032359;28;20489;-77
2022/06/26 01:44:16;;;;;;;7.00;4.60;;;19.30;99.90;;;;;;5028831;28;20457;-76
2022/06/26 01:46:43;;;;;;;13.23;5.00;;;19.20;99.90;;;;;;5031660;28;20513;-77
2022/06/26 01:49:09;;;;;;;6.93;4.57;;;19.20;99.90;;;;;;5032532;28;20469;-77
2022/06/26 01:51:36;;;;;;;7.80;5.20;;;19.10;99.90;;;;;;5032567;28;20469;-77
2022/06/26 01:54:03;;;;;;;4.80;4.23;;;19.00;99.90;;;;;;5032003;28;20868;-77
2022/06/26 01:56:30;;;;;;;9.73;5.80;;;19.00;99.90;;;;;;5031877;28;20875;-77
2022/06/26 01:58:58;;;;;;;9.83;5.40;;;19.00;99.90;;;;;;5031084;28;20958;-77
2022/06/26 02:01:25;;;;;;;11.63;5.20;;;18.90;99.90;;;;;;5031209;28;20467;-77
2022/06/26 02:03:51;;;;;;;13.10;5.23;;;18.90;99.90;;;;;;5030622;28;20491;-77
2022/06/26 02:06:18;;;;;;;5.90;4.87;;;18.90;99.90;;;;;;5031274;28;20857;-77
2022/06/26 02:08:45;;;;;;;8.33;5.00;;;19.00;99.90;;;;;;5031215;28;20453;-77
2022/06/26 02:13:57;;;;;;;7.73;4.90;;;19.00;99.90;;;;;;5030520;28;20436;-77
2022/06/26 02:16:27;;;;;;;13.23;5.10;;;19.00;99.90;;;;;;5030848;28;20950;-76
2022/06/26 02:18:56;;;;;;;13.70;5.00;;;19.00;99.90;;;;;;5030855;28;20479;-76
2022/06/26 02:21:24;;;;;;;13.60;4.77;;;19.00;99.90;;;;;;5030621;28;20897;-77
2022/06/26 02:23:53;;;;;;;7.73;5.10;;;19.00;99.90;;;;;;5030869;28;20451;-77
2022/06/26 02:26:21;;;;;;;6.23;5.10;;;18.80;99.90;;;;;;5030860;28;20461;-77
2022/06/26 02:28:48;;;;;;;8.23;4.10;;;18.90;99.90;;;;;;5030716;28;20449;-77
2022/06/26 02:31:16;;;;;;;4.67;3.90;;;19.00;99.90;;;;;;5031497;28;20981;-76
2022/06/26 02:33:43;;;;;;;4.80;4.30;;;19.00;99.90;;;;;;5030603;28;20911;-77
2022/06/26 02:36:10;;;;;;;4.90;4.50;;;19.00;99.90;;;;;;5026781;28;20480;-77
2022/06/26 02:38:38;;;;;;;6.20;4.73;;;19.00;99.90;;;;;;5031655;28;20511;-78
2022/06/26 02:41:05;;;;;;;6.97;5.17;;;19.00;99.90;;;;;;5030950;28;20460;-78
2022/06/26 02:43:31;;;;;;;6.53;4.70;;;19.00;99.90;;;;;;5030866;28;20511;-76
2022/06/26 02:45:59;;;;;;;11.57;5.47;;;18.90;99.90;;;;;;5031378;28;20464;-77
2022/06/26 02:48:27;;;;;;;7.63;5.00;;;18.90;99.90;;;;;;5032130;28;20515;-78
2022/06/26 02:50:53;;;;;;;8.63;5.20;;;18.80;99.90;;;;;;5031064;28;20469;-77
2022/06/26 02:53:20;;;;;;;11.57;4.77;;;18.80;99.90;;;;;;5030195;28;20510;-76
2022/06/26 02:55:47;;;;;;;11.03;4.83;;;18.80;99.90;;;;;;5031143;28;20446;-77
2022/06/26 02:58:14;;;;;;;5.80;5.17;;;18.80;99.90;;;;;;5031626;28;20427;-77
2022/06/26 03:00:41;;;;;;;7.97;4.67;;;18.80;99.90;;;;;;5030821;28;20519;-77
2022/06/26 03:03:07;;;;;;;7.93;4.50;;;18.80;99.90;;;;;;5030676;28;20428;-76
2022/06/26 03:05:36;;;;;;;12.40;4.90;;;18.80;99.90;;;;;;5030496;28;20445;-77
2022/06/26 03:08:02;;;;;;;14.23;5.33;;;18.80;99.90;;;;;;5030192;28;20507;-77
2022/06/26 03:10:29;;;;;;;10.33;5.00;;;18.80;99.90;;;;;;5030151;28;20456;-76
2022/06/26 03:12:56;;;;;;;5.40;4.90;;;18.70;99.90;;;;;;5030520;28;20805;-77
2022/06/26 03:15:23;;;;;;;20.50;4.77;;;18.70;99.90;;;;;;5030253;28;20449;-78
2022/06/26 03:17:50;;;;;;;8.70;4.40;;;18.70;99.90;;;;;;5029948;28;20985;-76
2022/06/26 03:20:19;;;;;;;14.20;4.73;;;18.70;99.90;;;;;;5029910;28;20489;-76
2022/06/26 03:22:47;;;;;;;15.43;5.60;;;18.60;99.90;;;;;;5028380;28;20507;-77
2022/06/26 03:25:14;;;;;;;7.33;4.87;;;18.40;99.90;;;;;;5032098;28;20457;-77
2022/06/26 03:27:40;;;;;;;13.20;4.50;;;18.40;99.90;;;;;;5033908;28;20457;-77
2022/06/26 03:30:09;;;;;;;12.90;4.80;;;18.30;99.90;;;;;;5034253;28;20496;-76
2022/06/26 03:32:36;;;;;;;6.83;4.77;;;18.30;99.90;;;;;;5031276;28;21105;-77
2022/06/26 03:35:03;;;;;;;16.43;4.87;;;18.40;99.90;;;;;;5032750;28;20431;-77
2022/06/26 03:37:30;;;;;;;6.33;5.77;;;18.20;99.90;;;;;;5032907;28;20416;-77
2022/06/26 03:39:58;;;;;;;23.13;5.70;;;18.20;99.90;;;;;;5033643;28;20484;-77
2022/06/26 03:42:25;;;;;;;8.07;5.63;;;18.20;99.90;;;;;;5032990;28;21098;-77
2022/06/26 03:44:52;;;;;;;7.33;5.60;;;18.20;99.90;;;;;;5033144;28;20461;-77
2022/06/26 03:47:19;;;;;;;8.97;5.30;;;18.20;99.90;;;;;;5033436;28;20453;-77
2022/06/26 03:49:46;;;;;;;6.70;5.60;;;18.20;99.90;;;;;;5033611;28;20519;-77
2022/06/26 03:52:13;;;;;;;12.20;4.67;;;18.20;99.90;;;;;;5031262;28;20464;-77
2022/06/26 03:54:39;;;;;;;10.27;4.90;;;18.20;99.90;;;;;;5033626;28;20431;-77
2022/06/26 03:57:07;;;;;;;9.63;5.17;;;18.30;99.90;;;;;;5032884;28;20457;-77
2022/06/26 03:59:36;;;;;;;11.03;5.47;;;18.30;99.90;;;;;;5032912;28;20455;-77
2022/06/26 04:02:04;;;;;;;7.23;5.17;;;18.40;99.90;;;;;;5032867;28;20497;-77
2022/06/26 04:04:30;;;;;;;7.40;4.67;;;18.50;99.90;;;;;;5032157;28;20441;-77
2022/06/26 04:06:57;;;;;;;11.40;5.90;;;18.50;99.90;;;;;;5033073;28;20485;-77
2022/06/26 04:09:23;;;;;;;7.77;5.43;;;18.60;99.90;;;;;;5032447;28;20522;-77
2022/06/26 04:11:50;;;;;;;4.73;4.33;;;18.70;99.90;;;;;;5033025;28;20469;-77
2022/06/26 04:14:18;;;;;;;7.83;4.73;;;18.70;99.90;;;;;;5032709;28;20453;-77
2022/06/26 04:16:45;;;;;;;11.43;4.77;;;18.80;99.90;;;;;;5034142;28;20461;-77
2022/06/26 04:19:11;;;;;;;5.63;5.10;;;18.80;99.90;;;;;;5033010;28;20449;-76
2022/06/26 04:21:38;;;;;;;6.97;4.27;;;18.90;99.90;;;;;;5033237;28;20476;-77
2022/06/26 04:24:05;;;;;;;13.77;5.40;;;19.00;99.90;;;;;;5033053;28;20503;-77
2022/06/26 04:26:32;;;;;;;7.53;4.70;;;19.00;99.90;;;;;;5033103;28;20453;-77
2022/06/26 04:28:59;;;;;;;10.53;4.37;;;19.10;99.90;;;;;;5034075;28;20547;-77
2022/06/26 04:31:27;;;;;;;5.50;4.40;;;19.20;99.90;;;;;;5033091;28;20519;-77
2022/06/26 04:33:53;;;;;;;7.77;4.47;;;19.20;99.90;;;;;;5032231;28;20503;-77
2022/06/26 04:36:21;;;;;;;12.13;5.10;;;19.30;99.90;;;;;;5033271;28;20481;-77
2022/06/26 04:38:47;;;;;;;7.87;5.50;;;19.30;99.90;;;;;;5033570;28;20829;-77
2022/06/26 04:41:34;;;;;;;6.73;5.03;;;19.30;99.90;;;;;;5032392;28;20516;-77
2022/06/26 04:44:01;;;;;;;7.33;5.50;;;19.40;99.90;;;;;;5032416;28;20453;-78
2022/06/26 04:46:29;;;;;;;6.07;5.00;;;19.50;99.90;;;;;;5032265;28;21317;-77
2022/06/26 04:48:56;;;;;;;9.07;4.97;;;19.50;99.90;;;;;;5029720;28;20461;-77
2022/06/26 04:51:23;;;;;;;7.83;4.80;;;19.70;99.90;;;;;;5032169;28;20465;-77
2022/06/26 04:53:50;;;;;;;7.97;4.90;;;19.70;99.90;;;;;;5032089;28;20457;-77
2022/06/26 04:56:16;;;;;;;7.33;4.60;;;19.80;99.90;;;;;;5032858;28;20476;-77
2022/06/26 04:58:43;;;;;;;5.87;4.70;;;20.00;99.90;;;;;;5030022;28;20883;-77
2022/06/26 05:01:10;;;;;;;8.43;4.30;;;20.00;99.90;;;;;;5032538;28;20493;-77
2022/06/26 05:03:38;;;;;;;5.50;3.73;;;20.10;99.90;;;;;;5032841;28;20461;-77
2022/06/26 05:06:04;;;;;;;7.60;3.77;;;20.10;99.90;;;;;;5032461;28;20464;-77
2022/06/26 05:08:31;;;;;;;3.50;3.30;;;20.10;99.90;;;;;;5033239;28;20449;-77
2022/06/26 05:10:58;;;;;;;3.60;3.30;;;20.10;99.90;;;;;;5032581;28;20469;-77
2022/06/26 05:13:24;;;;;;;7.90;3.57;;;20.10;99.90;;;;;;5032406;28;20515;-77
2022/06/26 05:15:51;;;;;;;4.03;3.20;;;20.20;99.90;;;;;;5033364;28;20923;-76
2022/06/26 05:18:18;;;;;;;6.37;3.30;;;20.20;99.90;;;;;;5031971;28;20458;-77
2022/06/26 05:20:46;;;;;;;3.13;2.90;;;20.20;99.90;;;;;;5033376;28;20519;-77
2022/06/26 05:23:14;;;;;;;7.50;2.90;;;20.20;99.90;;;;;;5031633;28;20481;-77
2022/06/26 05:25:41;;;;;;;6.73;3.40;;;20.30;99.90;;;;;;5031978;28;20470;-77
2022/06/26 05:28:07;;;;;;;5.30;2.90;;;20.30;99.90;;;;;;5032063;28;20461;-78
2022/06/26 05:30:34;;;;;;;3.60;3.30;;;20.40;99.90;;;;;;5031895;28;20503;-77
2022/06/26 05:33:01;;;;;;;10.17;3.30;;;20.50;99.90;;;;;;5031913;28;20453;-77
2022/06/26 05:35:29;;;;;;;7.93;3.23;;;20.50;99.90;;;;;;5030953;28;20938;-77
2022/06/26 05:37:57;;;;;;;3.60;3.27;;;20.50;99.90;;;;;;5031514;28;20527;-77
2022/06/26 05:40:24;;;;;;;4.40;3.00;;;20.50;99.90;;;;;;5029194;28;20870;-77
2022/06/26 05:42:53;;;;;;;2.93;2.73;;;20.50;99.90;;;;;;5030958;28;20512;-75
2022/06/26 05:45:20;;;;;;;4.27;3.27;;;20.40;99.90;;;;;;5030508;28;20454;-76
2022/06/26 05:47:46;;;;;;;3.30;2.90;;;20.40;99.90;;;;;;5031255;28;20458;-75
2022/06/26 05:50:13;;;;;;;2.80;2.60;;;20.60;99.90;;;;;;5027523;28;21015;-75
2022/06/26 05:52:40;;;;;;;3.20;2.80;;;20.90;99.90;;;;;;5031051;28;20448;-75
2022/06/26 05:55:09;;;;;;;2.57;2.47;;;21.10;99.90;;;;;;5030571;28;20488;-75
2022/06/26 05:57:35;;;;;;;4.67;2.77;;;21.30;99.90;;;;;;5031116;28;20476;-75
2022/06/26 06:00:03;;;;;;;2.43;2.30;;;21.60;99.90;;;;;;5031276;28;20507;-75
2022/06/26 06:02:30;;;;;;;5.77;2.30;;;21.80;99.90;;;;;;5030419;28;20507;-75
2022/06/26 06:04:57;;;;;;;2.13;2.03;;;21.80;99.90;;;;;;5030660;28;20974;-76
2022/06/26 06:07:23;;;;;;;9.43;2.53;;;22.00;99.90;;;;;;5030937;28;20981;-76
2022/06/26 06:09:50;;;;;;;4.03;2.20;;;22.20;99.90;;;;;;5030930;28;20479;-76
2022/06/26 06:12:18;;;;;;;2.53;2.00;;;22.40;99.90;;;;;;5031119;28;20494;-76
2022/06/26 06:14:45;;;;;;;3.00;2.33;;;22.80;99.90;;;;;;5030971;28;20457;-76
2022/06/26 06:19:56;;;;;;;3.30;1.80;;;23.10;99.90;;;;;;5030853;28;20487;-76
2022/06/26 06:22:23;;;;;;;1.73;1.63;;;23.10;99.90;;;;;;5030140;28;20812;-75
2022/06/26 06:24:49;;;;;;;1.57;1.47;;;23.00;99.90;;;;;;5030161;28;20453;-74
2022/06/26 06:27:17;;;;;;;5.50;1.63;;;23.00;99.90;;;;;;5030895;28;21015;-77
2022/06/26 06:29:44;;;;;;;4.97;1.60;;;23.10;99.90;;;;;;5030850;28;20457;-77
2022/06/26 06:32:10;;;;;;;1.30;1.20;;;23.20;99.90;;;;;;5030551;28;20469;-77
2022/06/26 06:34:37;;;;;;;1.40;1.23;;;23.40;99.90;;;;;;5029958;28;20460;-77
2022/06/26 06:37:04;;;;;;;1.30;1.20;;;23.40;99.90;;;;;;5030280;28;20465;-77
2022/06/26 06:39:31;;;;;;;3.67;1.40;;;23.30;99.90;;;;;;5030311;28;20953;-78
2022/06/26 06:41:57;;;;;;;2.73;1.20;;;23.40;99.90;;;;;;5031582;28;20547;-78
2022/06/26 06:44:25;;;;;;;1.30;1.20;;;23.50;99.90;;;;;;5031320;28;20454;-78
2022/06/26 06:46:52;;;;;;;3.57;1.30;;;23.50;99.90;;;;;;5030761;28;20461;-78
2022/06/26 06:49:18;;;;;;;1.53;1.40;;;23.50;99.90;;;;;;5032001;28;20511;-79
2022/06/26 06:51:45;;;;;;;3.30;1.30;;;23.70;99.90;;;;;;5032384;28;20461;-78
2022/06/26 06:54:12;;;;;;;4.70;1.40;;;23.60;99.90;;;;;;5030795;28;20441;-78
2022/06/26 06:56:38;;;;;;;1.30;1.20;;;23.50;99.90;;;;;;5032659;28;20457;-78
2022/06/26 06:59:05;;;;;;;1.83;1.10;;;23.40;99.90;;;;;;5032066;28;20457;-77
2022/06/26 07:01:33;;;;;;;1.90;1.30;;;23.20;99.90;;;;;;5033774;28;20537;-79
2022/06/26 07:04:00;;;;;;;4.47;1.27;;;23.10;99.90;;;;;;5031247;28;20519;-77
2022/06/26 07:06:27;;;;;;;2.20;1.20;;;23.00;99.90;;;;;;5034861;28;20524;-77
2022/06/26 07:08:54;;;;;;;1.27;1.10;;;23.30;99.90;;;;;;4983654;28;20474;-78
2022/06/26 07:11:20;;;;;;;1.30;1.20;;;23.70;99.90;;;;;;5031678;28;20473;-77
2022/06/26 07:13:47;;;;;;;2.50;0.90;;;24.20;99.90;;;;;;5032251;28;20500;-77
2022/06/26 07:16:14;;;;;;;1.30;1.20;;;24.50;99.90;;;;;;5031869;28;20457;-78
2022/06/26 07:18:42;;;;;;;1.10;1.00;;;24.50;99.90;;;;;;5031509;28;21118;-78
2022/06/26 07:21:08;;;;;;;1.20;1.10;;;24.60;99.90;;;;;;5036665;28;20543;-80
2022/06/26 07:23:35;;;;;;;1.23;1.13;;;24.50;99.90;;;;;;5038290;28;20489;-81
2022/06/26 07:26:02;;;;;;;1.40;1.30;;;24.50;99.90;;;;;;5035387;28;20980;-82
2022/06/26 07:28:28;;;;;;;1.50;1.20;;;24.70;99.90;;;;;;5038216;28;20450;-84
2022/06/26 07:30:55;;;;;;;1.40;1.20;;;25.10;99.90;;;;;;5036622;28;20470;-81
2022/06/26 07:36:07;;;;;;;8.27;1.50;;;25.40;99.90;;;;;;5034760;28;20452;-82
2022/06/26 07:38:34;;;;;;;1.97;1.47;;;25.40;99.90;;;;;;5034854;28;20444;-83
2022/06/26 07:41:01;;;;;;;1.47;1.30;;;25.50;99.90;;;;;;5034355;28;20477;-82
2022/06/26 07:43:27;;;;;;;2.30;2.10;;;25.70;99.90;;;;;;5039444;28;20485;-82
2022/06/26 07:45:54;;;;;;;5.33;1.37;;;25.80;99.90;;;;;;5036766;28;20954;-83
2022/06/26 07:53:00;;;;;;;1.50;1.40;;;25.90;99.90;;;;;;5090516;28;20623;-76
2022/06/26 07:55:28;;;;;;;2.20;1.57;;;26.00;99.90;;;;;;5086769;28;20469;-77
2022/06/26 07:57:54;;;;;;;2.07;1.83;;;26.20;99.90;;;;;;5073269;28;20447;-78
2022/06/26 08:00:21;;;;;;;24.47;11.60;;;25.80;99.90;;;;;;5074280;28;20959;-78
2022/06/26 08:02:48;;;;;;;4.00;2.87;;;25.70;99.90;;;;;;5072042;28;20520;-77
2022/06/26 08:05:14;;;;;;;7.90;2.40;;;25.70;99.90;;;;;;5079335;28;20954;-78
2022/06/26 08:07:42;;;;;;;2.23;2.03;;;25.90;99.90;;;;;;5080501;28;20451;-80
2022/06/26 08:10:10;;;;;;;3.83;1.50;;;26.20;99.90;;;;;;5076788;28;20498;-80
2022/06/26 08:12:37;;;;;;;2.13;1.50;;;26.50;99.90;;;;;;5077199;28;20471;-79
2022/06/26 08:15:05;;;;;;;2.40;1.40;;;26.80;99.90;;;;;;5080508;28;20890;-77
2022/06/26 08:17:32;;;;;;;2.47;1.20;;;26.90;99.90;;;;;;5083137;28;20961;-76
2022/06/26 08:19:58;;;;;;;6.60;1.40;;;27.00;99.90;;;;;;5084268;28;20472;-78
2022/06/26 08:22:25;;;;;;;1.40;1.23;;;27.20;99.90;;;;;;5075347;28;20460;-78
2022/06/26 08:24:52;;;;;;;2.60;1.20;;;27.40;99.90;;;;;;5075361;28;20872;-78
2022/06/26 08:27:19;;;;;;;1.60;1.50;;;27.50;99.90;;;;;;5075651;28;20452;-78
2022/06/26 08:29:46;;;;;;;2.53;1.27;;;27.40;99.90;;;;;;5081982;28;20513;-79
2022/06/26 08:32:13;;;;;;;1.40;1.30;;;27.50;99.90;;;;;;5086869;28;20491;-77
2022/06/26 08:34:39;;;;;;;1.40;1.30;;;27.60;99.90;;;;;;5088218;28;20472;-78
2022/06/26 08:37:06;;;;;;;2.93;1.50;;;27.70;99.90;;;;;;5080123;28;20452;-80
2022/06/26 08:39:35;;;;;;;1.63;1.40;;;27.70;99.90;;;;;;5079418;28;20959;-77
2022/06/26 08:42:04;;;;;;;3.47;1.40;;;27.80;99.90;;;;;;5079172;28;20474;-76
2022/06/26 08:44:33;;;;;;;1.97;1.30;;;27.80;99.90;;;;;;5079146;28;20952;-83
2022/06/26 08:47:00;;;;;;;2.00;1.60;;;27.90;99.90;;;;;;5080394;28;20448;-81
2022/06/26 08:49:27;;;;;;;1.50;1.40;;;28.10;99.90;;;;;;5080491;28;20459;-79
2022/06/26 08:51:54;;;;;;;2.80;1.60;;;28.20;99.90;;;;;;5079045;28;20487;-79
2022/06/26 08:54:20;;;;;;;2.03;1.43;;;28.10;99.90;;;;;;5091360;28;20447;-77
2022/06/26 08:56:48;;;;;;;2.70;1.60;;;28.10;99.90;;;;;;5088441;28;20448;-79
2022/06/26 08:59:17;;;;;;;2.17;1.33;;;28.10;99.90;;;;;;5088516;28;21024;-78
2022/06/26 09:01:46;;;;;;;1.63;1.40;;;28.20;99.90;;;;;;5078987;28;20881;-80
2022/06/26 09:04:13;;;;;;;1.30;1.20;;;28.30;99.90;;;;;;5076111;28;20843;-81
2022/06/26 09:06:49;;;;;;;3.43;1.20;;;28.60;99.90;;;;;;5068031;28;20455;-81
2022/06/26 09:09:17;;;;;;;2.40;1.60;;;28.70;99.90;;;;;;5063284;28;20520;-83
2022/06/26 09:11:45;;;;;;;2.37;1.23;;;28.70;99.90;;;;;;5068167;28;20471;-81
2022/06/26 09:14:12;;;;;;;1.63;1.40;;;28.80;99.90;;;;;;5067709;28;20482;-76
2022/06/26 09:16:42;;;;;;;1.73;1.37;;;28.90;99.90;;;;;;5070158;28;20447;-76
2022/06/26 09:19:11;;;;;;;4.20;1.43;;;29.00;99.90;;;;;;5071635;28;20456;-76
2022/06/26 09:21:37;;;;;;;2.90;1.27;;;28.90;99.90;;;;;;5068628;28;20464;-76
2022/06/26 09:24:04;;;;;;;1.50;1.40;;;28.60;99.90;;;;;;5070454;28;20452;-76
2022/06/26 09:26:31;;;;;;;1.20;1.10;;;28.80;99.90;;;;;;5070478;28;20456;-76
2022/06/26 09:29:07;;;;;;;9.63;1.60;;;29.00;99.90;;;;;;5071075;28;20804;-77
2022/06/26 09:31:37;;;;;;;2.43;1.30;;;28.90;99.90;;;;;;5067340;28;20510;-77
2022/06/26 09:34:04;;;;;;;2.50;1.30;;;28.50;99.90;;;;;;5053981;28;20447;-76
2022/06/26 09:36:32;;;;;;;1.40;1.30;;;28.20;99.90;;;;;;5058104;28;20448;-75
2022/06/26 09:38:59;;;;;;;1.30;1.20;;;27.90;99.90;;;;;;5061044;28;20465;-76
2022/06/26 09:41:30;;;;;;;2.13;1.43;;;27.50;99.90;;;;;;5059639;28;20468;-76
2022/06/26 09:43:57;;;;;;;1.90;1.43;;;27.20;99.90;;;;;;5068171;28;20815;-76
2022/06/26 09:46:29;;;;;;;3.63;1.57;;;27.10;99.90;;;;;;5068737;28;20451;-76
2022/06/26 09:48:57;;;;;;;2.47;1.40;;;27.40;99.90;;;;;;5059612;28;20641;-76
2022/06/26 09:51:24;;;;;;;1.33;1.23;;;27.90;99.90;;;;;;5055021;28;20567;-77
2022/06/26 09:53:52;;;;;;;1.47;1.37;;;28.20;99.90;;;;;;5056278;28;20479;-77
2022/06/26 09:56:19;;;;;;;2.43;2.23;;;28.40;99.90;;;;;;5055593;28;20495;-75
2022/06/26 09:58:46;;;;;;;2.50;1.30;;;28.70;99.90;;;;;;5063619;28;20456;-76
2022/06/26 10:06:44;;;;;;;1.40;1.30;;;28.20;99.90;;;;;;5061777;28;20463;-76
2022/06/26 10:09:13;;;;;;;2.40;1.40;;;28.40;99.90;;;;;;5064524;28;20451;-75
2022/06/26 10:11:42;;;;;;;3.63;1.87;;;28.60;99.90;;;;;;5069601;28;20567;-77
2022/06/26 10:14:14;;;;;;;1.50;1.40;;;28.50;99.90;;;;;;5066286;28;20456;-76
2022/06/26 10:17:05;;;;;;;2.70;1.57;;;28.40;99.90;;;;;;5056076;28;20502;-78
2022/06/26 10:19:39;;;;;;;1.77;1.43;;;28.40;99.90;;;;;;5056541;28;20449;-76
2022/06/26 10:22:06;;;;;;;1.60;1.20;;;28.30;99.90;;;;;;5054192;28;20530;-76
2022/06/26 10:24:34;;;;;;;1.50;1.20;;;28.60;99.90;;;;;;5053701;28;20457;-76
2022/06/26 10:27:03;;;;;;;1.83;1.20;;;28.70;99.90;;;;;;5054498;28;20457;-76
2022/06/26 10:29:35;;;;;;;1.83;1.30;;;28.80;99.90;;;;;;5053800;28;20502;-77
2022/06/26 10:32:02;;;;;;;2.40;1.50;;;29.00;99.90;;;;;;5064506;28;20509;-75
2022/06/26 10:34:28;;;;;;;1.43;1.33;;;29.10;99.90;;;;;;5061358;28;20867;-77
2022/06/26 10:37:01;;;;;;;1.10;1.00;;;29.10;99.90;;;;;;5063728;28;20455;-76
2022/06/26 10:39:46;;;;;;;3.30;1.50;;;29.10;99.90;;;;;;5060841;28;20445;-76
2022/06/26 10:45:10;;;;;;;2.80;1.23;;;29.10;99.90;;;;;;5058855;28;20875;-78
2022/06/26 10:47:48;;;;;;;2.70;0.90;;;29.30;99.90;;;;;;5064192;28;20478;-76
2022/06/26 10:50:27;;;;;;;1.60;1.40;;;29.50;99.90;;;;;;5054748;28;20198;-77
2022/06/26 10:52:54;;;;;;;2.37;1.20;;;29.40;99.90;;;;;;5062485;28;20537;-76
2022/06/26 10:55:22;;;;;;;1.97;1.40;;;29.60;99.90;;;;;;5056878;28;20502;-77
2022/06/26 10:57:49;;;;;;;1.30;1.20;;;29.90;99.90;;;;;;5060979;28;20464;-76
2022/06/26 11:00:16;;;;;;;1.60;1.23;;;30.10;99.90;;;;;;5064219;28;20534;-79
2022/06/26 11:02:45;;;;;;;1.40;1.30;;;29.90;99.90;;;;;;5060485;28;20464;-77
2022/06/26 11:05:14;;;;;;;3.40;1.20;;;29.90;99.90;;;;;;5061601;28;20948;-78
2022/06/26 11:07:46;;;;;;;1.30;1.20;;;30.10;99.90;;;;;;5061703;28;20517;-78
2022/06/26 11:10:17;;;;;;;1.40;1.30;;;30.00;99.90;;;;;;5062608;28;20508;-78
2022/06/26 11:12:48;;;;;;;1.70;1.40;;;29.70;99.90;;;;;;5066857;28;20487;-78
2022/06/26 11:15:24;;;;;;;3.20;1.50;;;29.50;99.90;;;;;;5062676;28;20448;-78
2022/06/26 11:17:59;;;;;;;1.40;1.30;;;29.20;99.90;;;;;;5065703;28;20485;-78
2022/06/26 11:23:16;;;;;;;2.83;1.70;;;29.00;99.90;;;;;;5068165;28;20440;-79
2022/06/26 11:25:43;;;;;;;1.43;1.33;;;29.00;99.90;;;;;;5065411;28;20448;-81
2022/06/26 11:28:12;;;;;;;4.00;1.37;;;28.70;99.90;;;;;;5070376;28;20940;-80
2022/06/26 11:30:39;;;;;;;1.27;1.17;;;28.60;99.90;;;;;;5065252;28;20480;-78
2022/06/26 11:33:07;;;;;;;1.40;1.27;;;28.60;99.90;;;;;;5057935;28;20608;-83
2022/06/26 11:35:35;;;;;;;1.30;1.20;;;28.30;99.90;;;;;;5075615;28;20547;-83
2022/06/26 11:38:10;;;;;;;1.60;1.50;;;28.20;99.90;;;;;;5078549;28;20483;-80
2022/06/26 11:40:37;;;;;;;2.53;1.30;;;28.00;99.90;;;;;;5064807;28;20472;-85
2022/06/26 11:43:04;;;;;;;1.70;1.40;;;27.80;99.90;;;;;;5074126;28;20540;-82
2022/06/26 11:45:32;;;;;;;1.97;1.87;;;28.00;99.90;;;;;;5073767;28;20455;-83
2022/06/26 11:48:00;;;;;;;4.50;1.67;;;28.00;99.90;;;;;;5067738;28;20470;-83
2022/06/26 11:50:29;;;;;;;16.13;7.67;;;28.10;99.90;;;;;;5073566;28;20995;-83
2022/06/26 11:52:58;;;;;;;1.53;1.43;;;28.30;99.90;;;;;;5071611;28;20496;-83
2022/06/26 11:55:25;;;;;;;1.67;1.53;;;28.50;99.90;;;;;;5080361;28;20863;-82
2022/06/26 11:57:54;;;;;;;4.10;1.40;;;28.50;99.90;;;;;;5065957;28;20456;-80
2022/06/26 12:00:22;;;;;;;31.07;28.57;;;28.50;99.90;;;;;;5071605;28;20452;-78
2022/06/26 12:02:51;;;;;;;2.70;1.47;;;28.40;99.90;;;;;;5062957;28;20498;-81
2022/06/26 12:05:21;;;;;;;2.60;2.10;;;28.30;99.90;;;;;;5071897;28;20448;-82
2022/06/26 12:07:48;;;;;;;26.87;19.10;;;28.30;99.90;;;;;;5071853;28;20484;-82
2022/06/26 12:10:26;;;;;;;21.07;16.97;;;28.20;99.90;;;;;;5075085;28;20440;-80
2022/06/26 12:12:53;;;;;;;26.20;14.53;;;28.20;99.90;;;;;;5066377;28;21490;-77
2022/06/26 12:15:20;;;;;;;459.50;316.50;;;28.20;99.90;;;;;;5073247;28;20445;-83
2022/06/26 12:17:55;;;;;;;537.90;342.87;;;28.10;99.90;;;;;;5064133;28;20452;-79
2022/06/26 12:20:21;;;;;;;200.10;179.90;;;28.10;99.90;;;;;;5063835;28;20871;-80
2022/06/26 12:22:51;;;;;;;203.27;124.37;;;27.90;99.90;;;;;;5057766;28;20963;-83
2022/06/26 12:25:27;;;;;;;151.87;69.67;;;27.80;99.90;;;;;;5066976;28;20894;-77
2022/06/26 12:27:53;;;;;;;32.43;21.97;;;27.80;99.90;;;;;;5065897;28;20530;-78
2022/06/26 12:30:22;;;;;;;39.23;28.93;;;27.80;99.90;;;;;;5056534;28;20533;-78
2022/06/26 12:32:49;;;;;;;2.50;2.30;;;27.80;99.90;;;;;;5063980;28;20484;-83
2022/06/26 12:35:17;;;;;;;1.50;1.40;;;27.80;99.90;;;;;;5054478;28;20456;-81
2022/06/26 12:37:43;;;;;;;1.67;1.20;;;27.80;99.90;;;;;;5054935;28;20452;-77
2022/06/26 12:40:12;;;;;;;2.00;1.50;;;27.80;99.90;;;;;;5069205;28;20556;-76
2022/06/26 12:42:39;;;;;;;2.80;1.37;;;27.80;99.90;;;;;;5071689;28;20454;-81
2022/06/26 12:45:06;;;;;;;1.50;1.40;;;27.80;99.90;;;;;;5060706;28;20444;-82
2022/06/26 12:47:33;;;;;;;1.87;1.77;;;27.80;99.90;;;;;;5070191;28;20815;-80
2022/06/26 12:50:00;;;;;;;1.57;1.40;;;27.90;99.90;;;;;;5065620;28;20452;-76
2022/06/26 12:52:28;;;;;;;1.30;1.20;;;28.00;99.90;;;;;;5069551;28;20536;-78
2022/06/26 12:54:55;;;;;;;1.63;1.40;;;28.10;99.90;;;;;;5057900;28;20487;-73
2022/06/26 12:57:21;;;;;;;1.80;1.70;;;28.00;99.90;;;;;;5056716;28;20949;-73
2022/06/26 12:59:48;;;;;;;1.60;1.50;;;28.10;99.90;;;;;;5057448;28;20464;-76
2022/06/26 13:02:15;;;;;;;5.23;1.50;;;28.00;99.90;;;;;;5066542;28;20533;-74
2022/06/26 13:04:41;;;;;;;1.60;1.50;;;28.00;99.90;;;;;;5057130;28;20502;-75
2022/06/26 13:07:08;;;;;;;5.53;1.47;;;27.90;99.90;;;;;;5060318;28;20514;-76
2022/06/26 13:09:36;;;;;;;3.00;2.50;;;27.70;99.90;;;;;;5057245;28;20448;-75
2022/06/26 13:12:03;;;;;;;3.83;1.90;;;27.70;99.90;;;;;;5063056;28;20472;-75